RWZ9901 VVCR-UUDD
Flight info
| Callsign | RWZ9901 |
|---|---|
| Flight time | N/A |
| Altitude | 35000 |
| Route | N0490F350 KARAN W2 PCA G221 WL V41 RUNEG W169 WUY R339 BSE V86 QNX A581 BIPIP W179 RIRKI W232 WFX W179 OMBON W195 MORIT Y478 NOPUS R366 AKTAS A357 ABESA R234 OKETI L158 APTAR T787 URAGO |
| Aircraft | B772/H-VGDW/C |
Departure
| Time | 2026-04-25 05:28 |
|---|---|
| Airport | Cam Ranh International Airport / Cam Ranh Air Base (VVCR) |
Arrival
| Time | N/A |
|---|---|
| Airport | Domodedovo International Airport (UUDD) |
| Time | Latitude | Longitude | Altitude | Speed | Heading |
|---|---|---|---|---|---|
| 2026-04-25 04:40 | 12.00899 | 109.21734 | 51 ft | 0 kts | 290° |
| 2026-04-25 05:12 | 12.00892 | 109.21754 | 57 ft | 4 kts | 289° |
| 2026-04-25 05:13 | 12.00883 | 109.21780 | 37 ft | 4 kts | 287° |
| 2026-04-25 05:13 | 12.00876 | 109.21805 | 44 ft | 2 kts | 287° |
| 2026-04-25 05:13 | 12.00874 | 109.21810 | 45 ft | 0 kts | 287° |
| 2026-04-25 05:18 | 12.00874 | 109.21808 | 45 ft | 1 kts | 281° |
| 2026-04-25 05:18 | 12.00870 | 109.21801 | 46 ft | 1 kts | 241° |
| 2026-04-25 05:19 | 12.00862 | 109.21798 | 48 ft | 1 kts | 198° |
| 2026-04-25 05:19 | 12.00847 | 109.21805 | 46 ft | 5 kts | 154° |
| 2026-04-25 05:19 | 12.00803 | 109.21826 | 51 ft | 9 kts | 154° |
| 2026-04-25 05:19 | 12.00740 | 109.21836 | 50 ft | 10 kts | 187° |
| 2026-04-25 05:20 | 12.00697 | 109.21824 | 50 ft | 10 kts | 198° |
| 2026-04-25 05:20 | 12.00633 | 109.21803 | 50 ft | 10 kts | 198° |
| 2026-04-25 05:20 | 12.00569 | 109.21782 | 49 ft | 10 kts | 198° |
| 2026-04-25 05:20 | 12.00505 | 109.21760 | 49 ft | 10 kts | 199° |
| 2026-04-25 05:21 | 12.00442 | 109.21736 | 48 ft | 10 kts | 200° |
| 2026-04-25 05:21 | 12.00378 | 109.21714 | 48 ft | 10 kts | 198° |
| 2026-04-25 05:21 | 12.00315 | 109.21692 | 47 ft | 10 kts | 199° |
| 2026-04-25 05:21 | 12.00251 | 109.21670 | 47 ft | 10 kts | 199° |
| 2026-04-25 05:22 | 12.00187 | 109.21648 | 46 ft | 10 kts | 198° |
| 2026-04-25 05:22 | 12.00132 | 109.21641 | 44 ft | 8 kts | 157° |
| 2026-04-25 05:22 | 12.00101 | 109.21689 | 46 ft | 8 kts | 110° |
| 2026-04-25 05:22 | 12.00082 | 109.21744 | 46 ft | 8 kts | 109° |
| 2026-04-25 05:23 | 12.00039 | 109.21771 | 46 ft | 8 kts | 188° |
| 2026-04-25 05:23 | 11.99984 | 109.21755 | 45 ft | 8 kts | 198° |
| 2026-04-25 05:23 | 11.99917 | 109.21732 | 44 ft | 13 kts | 199° |
| 2026-04-25 05:23 | 11.99814 | 109.21695 | 43 ft | 17 kts | 199° |
| 2026-04-25 05:24 | 11.99700 | 109.21655 | 42 ft | 17 kts | 198° |
| 2026-04-25 05:24 | 11.99586 | 109.21618 | 41 ft | 17 kts | 197° |
| 2026-04-25 05:24 | 11.99472 | 109.21579 | 40 ft | 17 kts | 199° |
| 2026-04-25 05:24 | 11.99359 | 109.21539 | 39 ft | 17 kts | 199° |
| 2026-04-25 05:25 | 11.99246 | 109.21498 | 38 ft | 17 kts | 199° |
| 2026-04-25 05:25 | 11.99133 | 109.21458 | 37 ft | 17 kts | 198° |
| 2026-04-25 05:25 | 11.99018 | 109.21421 | 36 ft | 17 kts | 198° |
| 2026-04-25 05:25 | 11.98905 | 109.21383 | 35 ft | 17 kts | 198° |
| 2026-04-25 05:26 | 11.98791 | 109.21343 | 34 ft | 17 kts | 199° |
| 2026-04-25 05:26 | 11.98686 | 109.21305 | 33 ft | 15 kts | 199° |
| 2026-04-25 05:26 | 11.98604 | 109.21280 | 33 ft | 12 kts | 185° |
| 2026-04-25 05:26 | 11.98559 | 109.21339 | 32 ft | 12 kts | 103° |
| 2026-04-25 05:27 | 11.98542 | 109.21419 | 32 ft | 12 kts | 102° |
| 2026-04-25 05:27 | 11.98564 | 109.21491 | 32 ft | 12 kts | 36° |
| 2026-04-25 05:27 | 11.98714 | 109.21549 | 33 ft | 51 kts | 18° |
| 2026-04-25 05:27 | 11.99277 | 109.21743 | 35 ft | 117 kts | 18° |
| 2026-04-25 05:28 | 12.00210 | 109.22070 | 65 ft | 166 kts | 18° |
| 2026-04-25 05:28 | 12.01304 | 109.22420 | 687 ft | 163 kts | 23° |
| 2026-04-25 05:28 | 12.02382 | 109.22817 | 1388 ft | 165 kts | 22° |
| 2026-04-25 05:28 | 12.03489 | 109.23214 | 1946 ft | 177 kts | 21° |
| 2026-04-25 05:29 | 12.04715 | 109.23654 | 2141 ft | 198 kts | 22° |
| 2026-04-25 05:29 | 12.06092 | 109.24147 | 2283 ft | 222 kts | 20° |
| 2026-04-25 05:29 | 12.07627 | 109.24692 | 2507 ft | 244 kts | 21° |
| 2026-04-25 05:29 | 12.09275 | 109.25273 | 3013 ft | 254 kts | 20° |
| 2026-04-25 05:30 | 12.10967 | 109.25869 | 3645 ft | 258 kts | 19° |
| 2026-04-25 05:30 | 12.12678 | 109.26471 | 4313 ft | 261 kts | 19° |
| 2026-04-25 05:30 | 12.14400 | 109.27078 | 4999 ft | 264 kts | 19° |
| 2026-04-25 05:30 | 12.16148 | 109.27619 | 5567 ft | 264 kts | 7° |
| 2026-04-25 05:31 | 12.17988 | 109.27454 | 6062 ft | 270 kts | 344° |
| 2026-04-25 05:31 | 12.19717 | 109.26660 | 6562 ft | 277 kts | 329° |
| 2026-04-25 05:31 | 12.21343 | 109.25560 | 7016 ft | 284 kts | 327° |
| 2026-04-25 05:31 | 12.22975 | 109.24411 | 7621 ft | 286 kts | 326° |
| 2026-04-25 05:32 | 12.24610 | 109.23241 | 8195 ft | 288 kts | 326° |
| 2026-04-25 05:32 | 12.26266 | 109.22050 | 8725 ft | 293 kts | 326° |
| 2026-04-25 05:32 | 12.27940 | 109.20847 | 9252 ft | 296 kts | 326° |
| 2026-04-25 05:32 | 12.29636 | 109.19630 | 9806 ft | 298 kts | 327° |
| 2026-04-25 05:33 | 12.31459 | 109.18711 | 10119 ft | 301 kts | 349° |
| 2026-04-25 05:33 | 12.33579 | 109.18496 | 10245 ft | 315 kts | 1° |
| 2026-04-25 05:33 | 12.35872 | 109.18538 | 10394 ft | 335 kts | 4° |
| 2026-04-25 05:33 | 12.38276 | 109.18661 | 10587 ft | 355 kts | 4° |
| 2026-04-25 05:34 | 12.40746 | 109.18806 | 11077 ft | 365 kts | 4° |
| 2026-04-25 05:34 | 12.43331 | 109.18956 | 11766 ft | 369 kts | 4° |
| 2026-04-25 05:34 | 12.45875 | 109.19097 | 12508 ft | 374 kts | 4° |
| 2026-04-25 05:34 | 12.48486 | 109.19233 | 13279 ft | 378 kts | 3° |
| 2026-04-25 05:35 | 12.51121 | 109.19364 | 14055 ft | 381 kts | 2° |
| 2026-04-25 05:35 | 12.53791 | 109.19492 | 14703 ft | 386 kts | 2° |
| 2026-04-25 05:35 | 12.56493 | 109.19619 | 15321 ft | 392 kts | 1° |
| 2026-04-25 05:35 | 12.59240 | 109.19745 | 15961 ft | 398 kts | 2° |
| 2026-04-25 05:36 | 12.62027 | 109.19874 | 16645 ft | 404 kts | 1° |
| 2026-04-25 05:36 | 12.64854 | 109.20003 | 17328 ft | 409 kts | 1° |
| 2026-04-25 05:36 | 12.67712 | 109.20133 | 18021 ft | 414 kts | 1° |
| 2026-04-25 05:36 | 12.70615 | 109.20265 | 18655 ft | 419 kts | 1° |
| 2026-04-25 05:37 | 12.73541 | 109.20398 | 19324 ft | 422 kts | 1° |
| 2026-04-25 05:37 | 12.76479 | 109.20533 | 20024 ft | 424 kts | 1° |
| 2026-04-25 05:37 | 12.79432 | 109.20669 | 20721 ft | 427 kts | 1° |
| 2026-04-25 05:37 | 12.82409 | 109.20805 | 21412 ft | 429 kts | 1° |
| 2026-04-25 05:38 | 12.85405 | 109.20942 | 22111 ft | 432 kts | 1° |
| 2026-04-25 05:38 | 12.88416 | 109.21081 | 22785 ft | 435 kts | 1° |
| 2026-04-25 05:38 | 12.91453 | 109.21220 | 23398 ft | 439 kts | 2° |
| 2026-04-25 05:38 | 12.94520 | 109.21360 | 23960 ft | 441 kts | 1° |
| 2026-04-25 05:39 | 12.97573 | 109.21501 | 24693 ft | 438 kts | 1° |
| 2026-04-25 05:39 | 13.00623 | 109.21641 | 25155 ft | 442 kts | 1° |
| 2026-04-25 05:39 | 13.03717 | 109.21783 | 25545 ft | 448 kts | 2° |
| 2026-04-25 05:39 | 13.06833 | 109.21926 | 26061 ft | 448 kts | 2° |
| 2026-04-25 05:40 | 13.09933 | 109.22069 | 26697 ft | 447 kts | 2° |
| 2026-04-25 05:40 | 13.13053 | 109.22212 | 27120 ft | 451 kts | 2° |
| 2026-04-25 05:40 | 13.16223 | 109.22357 | 27355 ft | 459 kts | 2° |
| 2026-04-25 05:40 | 13.19432 | 109.22505 | 27673 ft | 464 kts | 2° |
| 2026-04-25 05:41 | 13.22627 | 109.22651 | 28029 ft | 468 kts | 2° |
| 2026-04-25 05:41 | 13.25888 | 109.22801 | 28421 ft | 470 kts | 2° |
| 2026-04-25 05:41 | 13.29164 | 109.22952 | 28827 ft | 472 kts | 2° |
| 2026-04-25 05:41 | 13.32454 | 109.23104 | 29227 ft | 474 kts | 2° |
| 2026-04-25 05:42 | 13.35762 | 109.23256 | 29546 ft | 477 kts | 2° |
| 2026-04-25 05:42 | 13.39089 | 109.23409 | 29863 ft | 480 kts | 2° |
| 2026-04-25 05:42 | 13.42430 | 109.23562 | 30154 ft | 482 kts | 2° |
| 2026-04-25 05:42 | 13.45786 | 109.23717 | 30406 ft | 484 kts | 2° |
| 2026-04-25 05:43 | 13.49163 | 109.23873 | 30636 ft | 486 kts | 2° |
| 2026-04-25 05:43 | 13.52550 | 109.24029 | 30852 ft | 488 kts | 2° |
| 2026-04-25 05:43 | 13.55947 | 109.24185 | 31110 ft | 489 kts | 2° |
| 2026-04-25 05:43 | 13.59351 | 109.24342 | 31367 ft | 490 kts | 2° |
| 2026-04-25 05:44 | 13.62755 | 109.24499 | 31653 ft | 489 kts | 2° |
| 2026-04-25 05:44 | 13.66155 | 109.24656 | 31960 ft | 488 kts | 2° |
| 2026-04-25 05:44 | 13.69545 | 109.24812 | 32286 ft | 487 kts | 2° |
| 2026-04-25 05:44 | 13.72931 | 109.24969 | 32578 ft | 487 kts | 2° |
| 2026-04-25 05:45 | 13.76311 | 109.25125 | 32881 ft | 486 kts | 2° |
| 2026-04-25 05:45 | 13.79691 | 109.25281 | 33170 ft | 486 kts | 1° |
| 2026-04-25 05:45 | 13.83069 | 109.25437 | 33454 ft | 485 kts | 1° |
| 2026-04-25 05:45 | 13.86437 | 109.25593 | 33748 ft | 485 kts | 1° |
| 2026-04-25 05:46 | 13.89810 | 109.25749 | 34027 ft | 484 kts | 1° |
| 2026-04-25 05:46 | 13.93172 | 109.25904 | 34269 ft | 484 kts | 1° |
| 2026-04-25 05:46 | 13.96542 | 109.26059 | 34495 ft | 484 kts | 1° |
| 2026-04-25 05:46 | 13.99905 | 109.26215 | 34727 ft | 484 kts | 1° |
| 2026-04-25 05:47 | 14.03259 | 109.26370 | 34867 ft | 486 kts | 1° |
| 2026-04-25 05:47 | 14.10034 | 109.26683 | 34949 ft | 486 kts | 1° |
| 2026-04-25 05:48 | 14.16763 | 109.26996 | 34956 ft | 483 kts | 0° |
| 2026-04-25 05:48 | 14.23483 | 109.27307 | 34958 ft | 483 kts | 0° |
| 2026-04-25 05:49 | 14.30170 | 109.27617 | 34957 ft | 484 kts | 0° |
| 2026-04-25 05:49 | 14.36898 | 109.27929 | 34957 ft | 484 kts | 0° |
| 2026-04-25 05:50 | 14.43631 | 109.28241 | 34957 ft | 484 kts | 0° |
| 2026-04-25 05:50 | 14.50364 | 109.28554 | 34956 ft | 485 kts | 0° |
| 2026-04-25 05:51 | 14.57101 | 109.28867 | 34959 ft | 485 kts | 0° |
| 2026-04-25 05:51 | 14.63846 | 109.29181 | 34956 ft | 485 kts | 0° |
| 2026-04-25 05:52 | 14.70583 | 109.29495 | 34954 ft | 485 kts | 0° |
| 2026-04-25 05:52 | 14.77326 | 109.29809 | 34957 ft | 485 kts | 0° |
| 2026-04-25 05:53 | 14.84065 | 109.30123 | 34965 ft | 485 kts | 0° |
| 2026-04-25 05:53 | 14.90754 | 109.30435 | 34955 ft | 485 kts | 0° |
| 2026-04-25 05:54 | 14.97489 | 109.30749 | 34963 ft | 484 kts | 0° |
| 2026-04-25 05:54 | 15.07578 | 109.31220 | 34962 ft | 484 kts | 0° |
| 2026-04-25 05:55 | 15.14317 | 109.31535 | 34963 ft | 484 kts | 0° |
| 2026-04-25 05:55 | 15.21045 | 109.31849 | 34960 ft | 484 kts | 0° |
| 2026-04-25 05:56 | 15.27777 | 109.32164 | 34964 ft | 484 kts | 0° |
| 2026-04-25 05:56 | 15.34516 | 109.32480 | 34969 ft | 484 kts | 0° |
| 2026-04-25 05:57 | 15.41209 | 109.32793 | 34969 ft | 484 kts | 0° |
| 2026-04-25 05:57 | 15.47947 | 109.33109 | 34974 ft | 484 kts | 360° |
| 2026-04-25 05:58 | 15.54684 | 109.33425 | 34966 ft | 485 kts | 360° |
| 2026-04-25 05:58 | 15.61422 | 109.33741 | 34967 ft | 485 kts | 360° |
| 2026-04-25 05:59 | 15.68156 | 109.34058 | 34968 ft | 485 kts | 360° |
| 2026-04-25 05:59 | 15.74899 | 109.34375 | 34968 ft | 485 kts | 360° |
| 2026-04-25 06:00 | 15.81638 | 109.34692 | 34976 ft | 485 kts | 359° |
| 2026-04-25 06:00 | 15.88376 | 109.35009 | 34971 ft | 485 kts | 359° |
| 2026-04-25 06:01 | 15.95114 | 109.35326 | 34967 ft | 485 kts | 359° |
| 2026-04-25 06:01 | 16.01844 | 109.35643 | 34967 ft | 485 kts | 359° |
| 2026-04-25 06:02 | 16.08584 | 109.35961 | 34967 ft | 485 kts | 359° |
| 2026-04-25 06:02 | 16.15283 | 109.36278 | 34974 ft | 485 kts | 359° |
| 2026-04-25 06:03 | 16.22023 | 109.36596 | 34968 ft | 485 kts | 359° |
| 2026-04-25 06:03 | 16.28762 | 109.36914 | 34966 ft | 485 kts | 359° |
| 2026-04-25 06:04 | 16.35502 | 109.37233 | 34969 ft | 485 kts | 359° |
| 2026-04-25 06:04 | 16.42242 | 109.37552 | 34972 ft | 485 kts | 359° |
| 2026-04-25 06:05 | 16.48979 | 109.37871 | 34980 ft | 485 kts | 359° |
| 2026-04-25 06:05 | 16.55730 | 109.38191 | 34972 ft | 486 kts | 359° |
| 2026-04-25 06:06 | 16.62443 | 109.38509 | 34968 ft | 486 kts | 359° |
| 2026-04-25 06:06 | 16.69199 | 109.38830 | 34971 ft | 486 kts | 359° |
| 2026-04-25 06:07 | 16.75959 | 109.39151 | 34968 ft | 486 kts | 359° |
| 2026-04-25 06:07 | 16.82680 | 109.39009 | 34974 ft | 480 kts | 348° |
| 2026-04-25 06:08 | 16.89157 | 109.37580 | 34973 ft | 473 kts | 338° |
| 2026-04-25 06:08 | 16.95379 | 109.35401 | 34982 ft | 472 kts | 337° |
| 2026-04-25 06:09 | 17.01592 | 109.33193 | 34975 ft | 472 kts | 337° |
| 2026-04-25 06:09 | 17.06764 | 109.31384 | 34973 ft | 472 kts | 338° |
| 2026-04-25 06:10 | 17.12993 | 109.29224 | 34969 ft | 472 kts | 338° |
| 2026-04-25 06:10 | 17.20203 | 109.26728 | 34965 ft | 467 kts | 337° |
| 2026-04-25 06:11 | 17.25349 | 109.24943 | 34962 ft | 464 kts | 337° |
| 2026-04-25 06:11 | 17.31458 | 109.22821 | 34967 ft | 461 kts | 337° |
| 2026-04-25 06:12 | 17.37510 | 109.20716 | 34976 ft | 462 kts | 337° |
| 2026-04-25 06:12 | 17.43611 | 109.18593 | 34974 ft | 463 kts | 337° |
| 2026-04-25 06:13 | 17.49873 | 109.16871 | 34982 ft | 470 kts | 345° |
| 2026-04-25 06:14 | 17.59778 | 109.16347 | 34962 ft | 480 kts | 356° |
| 2026-04-25 06:14 | 17.66456 | 109.16501 | 34966 ft | 480 kts | 355° |
| 2026-04-25 06:15 | 17.73136 | 109.16583 | 34970 ft | 479 kts | 355° |
| 2026-04-25 06:15 | 17.79802 | 109.16661 | 34969 ft | 479 kts | 355° |
| 2026-04-25 06:16 | 17.86475 | 109.16742 | 34973 ft | 479 kts | 355° |
| 2026-04-25 06:16 | 17.93140 | 109.16826 | 34974 ft | 479 kts | 355° |
| 2026-04-25 06:17 | 17.99802 | 109.16909 | 34970 ft | 479 kts | 355° |
| 2026-04-25 06:17 | 18.06421 | 109.16996 | 34970 ft | 478 kts | 355° |
| 2026-04-25 06:17 | 18.09728 | 109.17050 | 34852 ft | 471 kts | 355° |
| 2026-04-25 06:18 | 18.13002 | 109.17113 | 34248 ft | 471 kts | 355° |
| 2026-04-25 06:18 | 18.16307 | 109.17176 | 33186 ft | 480 kts | 355° |
| 2026-04-25 06:18 | 18.19682 | 109.17233 | 32093 ft | 487 kts | 355° |
| 2026-04-25 06:18 | 18.23080 | 109.17281 | 31408 ft | 486 kts | 355° |
| 2026-04-25 06:19 | 18.26423 | 109.17324 | 31198 ft | 474 kts | 355° |
| 2026-04-25 06:19 | 18.29667 | 109.17365 | 31206 ft | 458 kts | 355° |
| 2026-04-25 06:19 | 18.32782 | 109.17395 | 31078 ft | 447 kts | 355° |
| 2026-04-25 06:19 | 18.35872 | 109.17417 | 30605 ft | 445 kts | 355° |
| 2026-04-25 06:20 | 18.38987 | 109.17425 | 29772 ft | 451 kts | 355° |
| 2026-04-25 06:20 | 18.42153 | 109.17412 | 28829 ft | 458 kts | 355° |
| 2026-04-25 06:20 | 18.45346 | 109.17383 | 28153 ft | 458 kts | 354° |
| 2026-04-25 06:20 | 18.48514 | 109.17347 | 27857 ft | 451 kts | 354° |
| 2026-04-25 06:21 | 18.51616 | 109.17319 | 27705 ft | 440 kts | 354° |
| 2026-04-25 06:21 | 18.54642 | 109.17310 | 27456 ft | 432 kts | 355° |
| 2026-04-25 06:21 | 18.57640 | 109.17320 | 26946 ft | 430 kts | 355° |
| 2026-04-25 06:21 | 18.60652 | 109.17333 | 26199 ft | 436 kts | 355° |
| 2026-04-25 06:22 | 18.63712 | 109.17348 | 25409 ft | 443 kts | 355° |
| 2026-04-25 06:22 | 18.66802 | 109.17360 | 24803 ft | 445 kts | 355° |
| 2026-04-25 06:22 | 18.69887 | 109.17366 | 24446 ft | 440 kts | 355° |
| 2026-04-25 06:22 | 18.72919 | 109.17366 | 24234 ft | 432 kts | 355° |
| 2026-04-25 06:23 | 18.75892 | 109.17359 | 24068 ft | 422 kts | 355° |
| 2026-04-25 06:23 | 18.76885 | 109.17356 | 24068 ft | 418 kts | 355° |
| 2026-04-25 06:23 | 18.79759 | 109.17349 | 23981 ft | 409 kts | 355° |
| 2026-04-25 06:23 | 18.82563 | 109.17344 | 23613 ft | 409 kts | 355° |
| 2026-04-25 06:24 | 18.85427 | 109.17332 | 22937 ft | 414 kts | 355° |
| 2026-04-25 06:24 | 18.88291 | 109.17303 | 22625 ft | 408 kts | 355° |
| 2026-04-25 06:24 | 18.91058 | 109.17260 | 22982 ft | 384 kts | 354° |
| 2026-04-25 06:24 | 18.93666 | 109.17206 | 23350 ft | 365 kts | 353° |
| 2026-04-25 06:25 | 18.96193 | 109.17133 | 23003 ft | 366 kts | 353° |
| 2026-04-25 06:25 | 18.98774 | 109.17005 | 22317 ft | 377 kts | 352° |
| 2026-04-25 06:25 | 19.01410 | 109.16818 | 21833 ft | 381 kts | 352° |
| 2026-04-25 06:25 | 19.04036 | 109.16594 | 21779 ft | 373 kts | 351° |
| 2026-04-25 06:26 | 19.06564 | 109.16342 | 21968 ft | 358 kts | 350° |
| 2026-04-25 06:26 | 19.09008 | 109.16066 | 21971 ft | 350 kts | 349° |
| 2026-04-25 06:26 | 19.11432 | 109.15760 | 21602 ft | 353 kts | 349° |
| 2026-04-25 06:26 | 19.13900 | 109.15410 | 21045 ft | 362 kts | 348° |
| 2026-04-25 06:27 | 19.16421 | 109.15019 | 20638 ft | 367 kts | 348° |